sensor_id;sensor_type;location;lat;lon;timestamp;P1;durP1;ratioP1;P2;durP2;ratioP2
54539;SDS011;40438;52.992;18.604;2023-08-06T00:00:40;4.72;;;3.28;;
54539;SDS011;40438;52.992;18.604;2023-08-06T00:03:06;6.03;;;3.10;;
54539;SDS011;40438;52.992;18.604;2023-08-06T00:05:32;6.65;;;3.70;;
54539;SDS011;40438;52.992;18.604;2023-08-06T00:07:59;5.82;;;3.20;;
54539;SDS011;40438;52.992;18.604;2023-08-06T00:10:25;5.45;;;3.72;;
54539;SDS011;40438;52.992;18.604;2023-08-06T00:12:51;6.47;;;3.78;;
54539;SDS011;40438;52.992;18.604;2023-08-06T00:15:17;7.13;;;3.50;;
54539;SDS011;40438;52.992;18.604;2023-08-06T00:17:43;7.00;;;3.88;;
54539;SDS011;40438;52.992;18.604;2023-08-06T00:20:08;8.57;;;3.80;;
54539;SDS011;40438;52.992;18.604;2023-08-06T00:22:35;6.90;;;3.45;;
54539;SDS011;40438;52.992;18.604;2023-08-06T00:25:04;7.63;;;3.42;;
54539;SDS011;40438;52.992;18.604;2023-08-06T00:27:30;6.15;;;3.45;;
54539;SDS011;40438;52.992;18.604;2023-08-06T00:29:56;6.03;;;4.32;;
54539;SDS011;40438;52.992;18.604;2023-08-06T00:32:22;5.40;;;4.00;;
54539;SDS011;40438;52.992;18.604;2023-08-06T00:34:48;5.07;;;3.72;;
54539;SDS011;40438;52.992;18.604;2023-08-06T00:37:14;8.02;;;3.92;;
54539;SDS011;40438;52.992;18.604;2023-08-06T00:39:39;5.75;;;4.07;;
54539;SDS011;40438;52.992;18.604;2023-08-06T00:42:06;7.30;;;4.50;;
54539;SDS011;40438;52.992;18.604;2023-08-06T00:44:32;6.80;;;4.18;;
54539;SDS011;40438;52.992;18.604;2023-08-06T00:46:58;7.68;;;3.85;;
54539;SDS011;40438;52.992;18.604;2023-08-06T00:49:24;7.30;;;3.80;;
54539;SDS011;40438;52.992;18.604;2023-08-06T00:51:50;6.18;;;3.95;;
54539;SDS011;40438;52.992;18.604;2023-08-06T00:54:16;7.78;;;4.03;;
54539;SDS011;40438;52.992;18.604;2023-08-06T00:56:42;6.57;;;4.22;;
54539;SDS011;40438;52.992;18.604;2023-08-06T00:59:09;6.32;;;3.90;;
54539;SDS011;40438;52.992;18.604;2023-08-06T01:01:36;5.32;;;3.80;;
54539;SDS011;40438;52.992;18.604;2023-08-06T01:04:02;5.30;;;3.75;;
54539;SDS011;40438;52.992;18.604;2023-08-06T01:06:39;4.30;;;3.70;;
54539;SDS011;40438;52.992;18.604;2023-08-06T01:09:11;9.15;;;4.82;;
54539;SDS011;40438;52.992;18.604;2023-08-06T01:14:36;5.40;;;3.63;;
54539;SDS011;40438;52.992;18.604;2023-08-06T01:17:09;5.35;;;3.53;;
54539;SDS011;40438;52.992;18.604;2023-08-06T01:19:35;6.13;;;3.70;;
54539;SDS011;40438;52.992;18.604;2023-08-06T01:22:02;5.20;;;4.00;;
54539;SDS011;40438;52.992;18.604;2023-08-06T01:24:29;6.20;;;3.22;;
54539;SDS011;40438;52.992;18.604;2023-08-06T01:26:56;4.40;;;3.20;;
54539;SDS011;40438;52.992;18.604;2023-08-06T01:29:28;4.85;;;3.33;;
54539;SDS011;40438;52.992;18.604;2023-08-06T01:31:56;6.30;;;3.67;;
54539;SDS011;40438;52.992;18.604;2023-08-06T01:34:24;5.68;;;3.47;;
54539;SDS011;40438;52.992;18.604;2023-08-06T01:36:53;7.78;;;3.40;;
54539;SDS011;40438;52.992;18.604;2023-08-06T01:39:21;5.30;;;3.75;;
54539;SDS011;40438;52.992;18.604;2023-08-06T01:41:46;5.13;;;3.65;;
54539;SDS011;40438;52.992;18.604;2023-08-06T01:44:12;3.90;;;3.28;;
54539;SDS011;40438;52.992;18.604;2023-08-06T01:46:38;6.97;;;3.25;;
54539;SDS011;40438;52.992;18.604;2023-08-06T01:49:06;6.70;;;3.40;;
54539;SDS011;40438;52.992;18.604;2023-08-06T01:51:32;4.88;;;3.67;;
54539;SDS011;40438;52.992;18.604;2023-08-06T01:53:58;7.72;;;3.58;;
54539;SDS011;40438;52.992;18.604;2023-08-06T01:56:25;5.68;;;3.65;;
54539;SDS011;40438;52.992;18.604;2023-08-06T01:58:51;6.40;;;3.25;;
54539;SDS011;40438;52.992;18.604;2023-08-06T02:01:17;4.05;;;3.22;;
54539;SDS011;40438;52.992;18.604;2023-08-06T02:03:44;4.55;;;3.10;;
54539;SDS011;40438;52.992;18.604;2023-08-06T02:06:09;7.63;;;3.53;;
54539;SDS011;40438;52.992;18.604;2023-08-06T02:08:35;4.10;;;3.50;;
54539;SDS011;40438;52.992;18.604;2023-08-06T02:11:01;6.53;;;3.22;;
54539;SDS011;40438;52.992;18.604;2023-08-06T02:13:28;3.97;;;3.13;;
54539;SDS011;40438;52.992;18.604;2023-08-06T02:15:54;4.93;;;3.53;;
54539;SDS011;40438;52.992;18.604;2023-08-06T02:18:20;21.05;;;3.75;;
54539;SDS011;40438;52.992;18.604;2023-08-06T02:20:54;2.83;;;2.53;;
54539;SDS011;40438;52.992;18.604;2023-08-06T02:23:21;5.25;;;2.75;;
54539;SDS011;40438;52.992;18.604;2023-08-06T02:25:47;4.85;;;2.70;;
54539;SDS011;40438;52.992;18.604;2023-08-06T02:28:12;4.75;;;2.85;;
54539;SDS011;40438;52.992;18.604;2023-08-06T02:30:40;5.10;;;2.90;;
54539;SDS011;40438;52.992;18.604;2023-08-06T02:33:15;3.88;;;2.88;;
54539;SDS011;40438;52.992;18.604;2023-08-06T02:35:40;3.83;;;2.50;;
54539;SDS011;40438;52.992;18.604;2023-08-06T02:38:06;3.47;;;2.63;;
54539;SDS011;40438;52.992;18.604;2023-08-06T02:40:32;3.08;;;2.50;;
54539;SDS011;40438;52.992;18.604;2023-08-06T02:42:58;4.28;;;3.08;;
54539;SDS011;40438;52.992;18.604;2023-08-06T02:45:23;2.45;;;2.25;;
54539;SDS011;40438;52.992;18.604;2023-08-06T02:47:51;3.67;;;2.60;;
54539;SDS011;40438;52.992;18.604;2023-08-06T02:50:16;2.90;;;2.30;;
54539;SDS011;40438;52.992;18.604;2023-08-06T02:52:42;2.83;;;2.17;;
54539;SDS011;40438;52.992;18.604;2023-08-06T02:55:09;4.20;;;2.53;;
54539;SDS011;40438;52.992;18.604;2023-08-06T02:57:40;3.22;;;2.28;;
54539;SDS011;40438;52.992;18.604;2023-08-06T03:00:06;2.88;;;2.42;;
54539;SDS011;40438;52.992;18.604;2023-08-06T03:02:33;4.25;;;2.10;;
54539;SDS011;40438;52.992;18.604;2023-08-06T03:05:20;3.67;;;2.20;;
54539;SDS011;40438;52.992;18.604;2023-08-06T03:07:48;3.25;;;2.30;;
54539;SDS011;40438;52.992;18.604;2023-08-06T03:10:20;2.70;;;2.30;;
54539;SDS011;40438;52.992;18.604;2023-08-06T03:12:47;3.53;;;2.20;;
54539;SDS011;40438;52.992;18.604;2023-08-06T03:15:13;2.15;;;1.95;;
54539;SDS011;40438;52.992;18.604;2023-08-06T03:17:41;2.63;;;2.10;;
54539;SDS011;40438;52.992;18.604;2023-08-06T03:20:09;4.40;;;2.10;;
54539;SDS011;40438;52.992;18.604;2023-08-06T03:22:36;2.42;;;1.98;;
54539;SDS011;40438;52.992;18.604;2023-08-06T03:25:03;2.67;;;1.85;;
54539;SDS011;40438;52.992;18.604;2023-08-06T03:27:29;3.03;;;2.17;;
54539;SDS011;40438;52.992;18.604;2023-08-06T03:29:55;2.38;;;2.00;;
54539;SDS011;40438;52.992;18.604;2023-08-06T03:32:24;2.35;;;1.95;;
54539;SDS011;40438;52.992;18.604;2023-08-06T03:34:52;4.63;;;2.20;;
54539;SDS011;40438;52.992;18.604;2023-08-06T03:37:19;4.53;;;2.38;;
54539;SDS011;40438;52.992;18.604;2023-08-06T03:39:46;9.32;;;2.60;;
54539;SDS011;40438;52.992;18.604;2023-08-06T03:42:12;5.70;;;3.20;;
54539;SDS011;40438;52.992;18.604;2023-08-06T03:44:37;4.68;;;2.83;;
54539;SDS011;40438;52.992;18.604;2023-08-06T03:47:05;4.15;;;2.80;;
54539;SDS011;40438;52.992;18.604;2023-08-06T03:49:31;4.25;;;2.83;;
54539;SDS011;40438;52.992;18.604;2023-08-06T03:51:57;6.63;;;3.13;;
54539;SDS011;40438;52.992;18.604;2023-08-06T03:54:23;5.15;;;2.95;;
54539;SDS011;40438;52.992;18.604;2023-08-06T03:56:50;4.45;;;2.35;;
54539;SDS011;40438;52.992;18.604;2023-08-06T03:59:16;5.13;;;2.45;;
54539;SDS011;40438;52.992;18.604;2023-08-06T04:01:43;3.95;;;2.30;;
54539;SDS011;40438;52.992;18.604;2023-08-06T04:04:08;4.25;;;2.22;;
54539;SDS011;40438;52.992;18.604;2023-08-06T04:06:34;2.63;;;1.90;;
54539;SDS011;40438;52.992;18.604;2023-08-06T04:09:00;2.15;;;1.95;;
54539;SDS011;40438;52.992;18.604;2023-08-06T04:11:26;2.88;;;2.00;;
54539;SDS011;40438;52.992;18.604;2023-08-06T04:13:53;2.25;;;1.85;;
54539;SDS011;40438;52.992;18.604;2023-08-06T04:16:19;2.65;;;2.33;;
54539;SDS011;40438;52.992;18.604;2023-08-06T04:18:46;2.38;;;2.00;;
54539;SDS011;40438;52.992;18.604;2023-08-06T04:21:12;4.53;;;2.05;;
54539;SDS011;40438;52.992;18.604;2023-08-06T04:23:39;2.33;;;2.00;;
54539;SDS011;40438;52.992;18.604;2023-08-06T04:26:07;1.92;;;1.73;;
54539;SDS011;40438;52.992;18.604;2023-08-06T04:28:34;2.47;;;2.03;;
54539;SDS011;40438;52.992;18.604;2023-08-06T04:31:01;2.80;;;2.13;;
54539;SDS011;40438;52.992;18.604;2023-08-06T04:33:30;2.88;;;2.10;;
54539;SDS011;40438;52.992;18.604;2023-08-06T04:35:59;4.40;;;3.10;;
54539;SDS011;40438;52.992;18.604;2023-08-06T04:38:26;3.83;;;2.80;;
54539;SDS011;40438;52.992;18.604;2023-08-06T04:40:53;3.97;;;2.47;;
54539;SDS011;40438;52.992;18.604;2023-08-06T04:43:19;3.50;;;2.17;;
54539;SDS011;40438;52.992;18.604;2023-08-06T04:45:46;4.35;;;2.30;;
54539;SDS011;40438;52.992;18.604;2023-08-06T04:48:13;3.40;;;2.30;;
54539;SDS011;40438;52.992;18.604;2023-08-06T04:50:42;4.68;;;2.35;;
54539;SDS011;40438;52.992;18.604;2023-08-06T04:53:09;3.90;;;2.33;;
54539;SDS011;40438;52.992;18.604;2023-08-06T04:55:34;7.55;;;2.22;;
54539;SDS011;40438;52.992;18.604;2023-08-06T04:58:00;2.42;;;2.00;;
54539;SDS011;40438;52.992;18.604;2023-08-06T05:00:26;3.70;;;2.55;;
54539;SDS011;40438;52.992;18.604;2023-08-06T05:02:52;5.32;;;3.00;;
54539;SDS011;40438;52.992;18.604;2023-08-06T05:05:19;5.45;;;2.90;;
54539;SDS011;40438;52.992;18.604;2023-08-06T05:07:45;4.78;;;2.90;;
54539;SDS011;40438;52.992;18.604;2023-08-06T05:10:13;5.53;;;2.97;;
54539;SDS011;40438;52.992;18.604;2023-08-06T05:12:39;6.70;;;2.60;;
54539;SDS011;40438;52.992;18.604;2023-08-06T05:15:05;5.53;;;3.75;;
54539;SDS011;40438;52.992;18.604;2023-08-06T05:17:31;6.82;;;3.58;;
54539;SDS011;40438;52.992;18.604;2023-08-06T05:19:57;4.70;;;2.97;;
54539;SDS011;40438;52.992;18.604;2023-08-06T05:22:24;4.93;;;3.22;;
54539;SDS011;40438;52.992;18.604;2023-08-06T05:24:50;4.85;;;3.40;;
54539;SDS011;40438;52.992;18.604;2023-08-06T05:27:16;5.10;;;3.40;;
54539;SDS011;40438;52.992;18.604;2023-08-06T05:29:41;6.85;;;3.40;;
54539;SDS011;40438;52.992;18.604;2023-08-06T05:32:07;7.78;;;3.47;;
54539;SDS011;40438;52.992;18.604;2023-08-06T05:34:33;6.15;;;3.00;;
54539;SDS011;40438;52.992;18.604;2023-08-06T05:36:59;5.45;;;3.67;;
54539;SDS011;40438;52.992;18.604;2023-08-06T05:39:26;6.10;;;3.13;;
54539;SDS011;40438;52.992;18.604;2023-08-06T05:41:52;5.18;;;3.45;;
54539;SDS011;40438;52.992;18.604;2023-08-06T05:44:18;5.88;;;3.53;;
54539;SDS011;40438;52.992;18.604;2023-08-06T05:46:43;8.48;;;3.55;;
54539;SDS011;40438;52.992;18.604;2023-08-06T05:49:09;6.57;;;3.55;;
54539;SDS011;40438;52.992;18.604;2023-08-06T05:51:35;5.15;;;3.38;;
54539;SDS011;40438;52.992;18.604;2023-08-06T05:54:01;7.63;;;3.40;;
54539;SDS011;40438;52.992;18.604;2023-08-06T05:56:28;6.18;;;3.25;;
54539;SDS011;40438;52.992;18.604;2023-08-06T05:58:53;5.25;;;2.95;;
54539;SDS011;40438;52.992;18.604;2023-08-06T06:01:19;4.82;;;2.70;;
54539;SDS011;40438;52.992;18.604;2023-08-06T06:03:45;3.40;;;2.55;;
54539;SDS011;40438;52.992;18.604;2023-08-06T06:06:11;5.05;;;2.63;;
54539;SDS011;40438;52.992;18.604;2023-08-06T06:08:37;3.30;;;2.30;;
54539;SDS011;40438;52.992;18.604;2023-08-06T06:11:02;2.15;;;1.95;;
54539;SDS011;40438;52.992;18.604;2023-08-06T06:13:30;2.88;;;2.20;;
54539;SDS011;40438;52.992;18.604;2023-08-06T06:15:55;4.22;;;2.38;;
54539;SDS011;40438;52.992;18.604;2023-08-06T06:18:21;4.13;;;2.40;;
54539;SDS011;40438;52.992;18.604;2023-08-06T06:20:47;3.63;;;2.08;;
54539;SDS011;40438;52.992;18.604;2023-08-06T06:23:13;2.63;;;2.00;;
54539;SDS011;40438;52.992;18.604;2023-08-06T06:25:41;2.90;;;1.90;;
54539;SDS011;40438;52.992;18.604;2023-08-06T06:28:07;4.07;;;2.63;;
54539;SDS011;40438;52.992;18.604;2023-08-06T06:30:35;3.25;;;2.08;;
54539;SDS011;40438;52.992;18.604;2023-08-06T06:33:00;2.15;;;1.60;;
54539;SDS011;40438;52.992;18.604;2023-08-06T06:35:26;3.58;;;2.10;;
54539;SDS011;40438;52.992;18.604;2023-08-06T06:37:52;3.72;;;2.15;;
54539;SDS011;40438;52.992;18.604;2023-08-06T06:40:18;3.15;;;1.90;;
54539;SDS011;40438;52.992;18.604;2023-08-06T06:42:43;3.10;;;1.95;;
54539;SDS011;40438;52.992;18.604;2023-08-06T06:45:09;2.00;;;1.80;;
54539;SDS011;40438;52.992;18.604;2023-08-06T06:47:36;3.03;;;1.92;;
54539;SDS011;40438;52.992;18.604;2023-08-06T06:50:02;2.55;;;1.90;;
54539;SDS011;40438;52.992;18.604;2023-08-06T06:52:29;2.00;;;1.80;;
54539;SDS011;40438;52.992;18.604;2023-08-06T06:54:55;3.05;;;1.83;;
54539;SDS011;40438;52.992;18.604;2023-08-06T06:57:20;2.70;;;2.08;;
54539;SDS011;40438;52.992;18.604;2023-08-06T06:59:46;3.83;;;1.88;;
54539;SDS011;40438;52.992;18.604;2023-08-06T07:02:12;2.67;;;2.10;;
54539;SDS011;40438;52.992;18.604;2023-08-06T07:04:39;2.55;;;1.98;;
54539;SDS011;40438;52.992;18.604;2023-08-06T07:07:05;5.03;;;1.95;;
54539;SDS011;40438;52.992;18.604;2023-08-06T07:09:31;2.55;;;2.00;;
54539;SDS011;40438;52.992;18.604;2023-08-06T07:11:56;2.10;;;1.88;;
54539;SDS011;40438;52.992;18.604;2023-08-06T07:14:23;2.55;;;1.65;;
54539;SDS011;40438;52.992;18.604;2023-08-06T07:16:49;2.20;;;2.00;;
54539;SDS011;40438;52.992;18.604;2023-08-06T07:19:15;2.90;;;1.73;;
54539;SDS011;40438;52.992;18.604;2023-08-06T07:21:42;2.72;;;2.40;;
54539;SDS011;40438;52.992;18.604;2023-08-06T07:24:08;2.53;;;1.80;;
54539;SDS011;40438;52.992;18.604;2023-08-06T07:26:34;1.85;;;1.65;;
54539;SDS011;40438;52.992;18.604;2023-08-06T07:29:00;6.10;;;2.20;;
54539;SDS011;40438;52.992;18.604;2023-08-06T07:31:25;3.08;;;1.67;;
54539;SDS011;40438;52.992;18.604;2023-08-06T07:33:51;2.88;;;2.25;;
54539;SDS011;40438;52.992;18.604;2023-08-06T07:36:17;2.50;;;1.90;;
54539;SDS011;40438;52.992;18.604;2023-08-06T07:38:44;2.30;;;2.03;;
54539;SDS011;40438;52.992;18.604;2023-08-06T07:41:10;4.25;;;2.20;;
54539;SDS011;40438;52.992;18.604;2023-08-06T07:43:36;2.97;;;2.17;;
54539;SDS011;40438;52.992;18.604;2023-08-06T07:46:02;5.03;;;2.20;;
54539;SDS011;40438;52.992;18.604;2023-08-06T07:48:28;2.38;;;2.00;;
54539;SDS011;40438;52.992;18.604;2023-08-06T07:50:53;2.80;;;2.22;;
54539;SDS011;40438;52.992;18.604;2023-08-06T07:53:20;3.72;;;2.67;;
54539;SDS011;40438;52.992;18.604;2023-08-06T07:55:49;2.13;;;1.92;;
54539;SDS011;40438;52.992;18.604;2023-08-06T07:58:15;4.07;;;2.70;;
54539;SDS011;40438;52.992;18.604;2023-08-06T08:00:41;2.83;;;2.47;;
54539;SDS011;40438;52.992;18.604;2023-08-06T08:03:06;3.22;;;2.38;;
54539;SDS011;40438;52.992;18.604;2023-08-06T08:05:32;3.55;;;2.50;;
54539;SDS011;40438;52.992;18.604;2023-08-06T08:07:58;2.88;;;2.55;;
54539;SDS011;40438;52.992;18.604;2023-08-06T08:10:24;2.65;;;2.30;;
54539;SDS011;40438;52.992;18.604;2023-08-06T08:12:51;3.05;;;2.70;;
54539;SDS011;40438;52.992;18.604;2023-08-06T08:15:17;3.60;;;2.63;;
54539;SDS011;40438;52.992;18.604;2023-08-06T08:17:43;4.53;;;3.22;;
54539;SDS011;40438;52.992;18.604;2023-08-06T08:20:09;4.80;;;2.97;;
54539;SDS011;40438;52.992;18.604;2023-08-06T08:22:35;6.30;;;3.20;;
54539;SDS011;40438;52.992;18.604;2023-08-06T08:25:01;4.10;;;2.97;;
54539;SDS011;40438;52.992;18.604;2023-08-06T08:27:26;5.22;;;3.30;;
54539;SDS011;40438;52.992;18.604;2023-08-06T08:29:54;5.00;;;3.20;;
54539;SDS011;40438;52.992;18.604;2023-08-06T08:32:19;4.35;;;3.20;;
54539;SDS011;40438;52.992;18.604;2023-08-06T08:34:45;4.07;;;3.25;;
54539;SDS011;40438;52.992;18.604;2023-08-06T08:37:11;4.18;;;3.38;;
54539;SDS011;40438;52.992;18.604;2023-08-06T08:39:38;5.78;;;4.20;;
54539;SDS011;40438;52.992;18.604;2023-08-06T08:42:05;4.65;;;3.60;;
54539;SDS011;40438;52.992;18.604;2023-08-06T08:44:31;4.68;;;3.55;;
54539;SDS011;40438;52.992;18.604;2023-08-06T08:46:59;7.78;;;3.67;;
54539;SDS011;40438;52.992;18.604;2023-08-06T08:49:24;4.85;;;3.30;;
54539;SDS011;40438;52.992;18.604;2023-08-06T08:51:51;4.88;;;3.38;;
54539;SDS011;40438;52.992;18.604;2023-08-06T08:54:18;4.45;;;3.58;;
54539;SDS011;40438;52.992;18.604;2023-08-06T08:56:48;4.13;;;3.22;;
54539;SDS011;40438;52.992;18.604;2023-08-06T08:59:14;4.10;;;3.30;;
54539;SDS011;40438;52.992;18.604;2023-08-06T09:01:39;4.55;;;3.55;;
54539;SDS011;40438;52.992;18.604;2023-08-06T09:04:08;5.55;;;3.50;;
54539;SDS011;40438;52.992;18.604;2023-08-06T09:06:36;8.77;;;3.92;;
54539;SDS011;40438;52.992;18.604;2023-08-06T09:09:06;4.95;;;3.22;;
54539;SDS011;40438;52.992;18.604;2023-08-06T09:11:34;5.57;;;3.65;;
54539;SDS011;40438;52.992;18.604;2023-08-06T09:14:02;4.78;;;3.65;;
54539;SDS011;40438;52.992;18.604;2023-08-06T09:16:28;5.53;;;3.85;;
54539;SDS011;40438;52.992;18.604;2023-08-06T09:18:54;7.10;;;3.50;;
54539;SDS011;40438;52.992;18.604;2023-08-06T09:21:21;5.47;;;3.80;;
54539;SDS011;40438;52.992;18.604;2023-08-06T09:23:47;4.13;;;3.55;;
54539;SDS011;40438;52.992;18.604;2023-08-06T09:26:13;5.63;;;3.97;;
54539;SDS011;40438;52.992;18.604;2023-08-06T09:28:39;7.70;;;4.25;;
54539;SDS011;40438;52.992;18.604;2023-08-06T09:31:05;5.78;;;4.43;;
54539;SDS011;40438;52.992;18.604;2023-08-06T09:33:31;6.15;;;3.78;;
54539;SDS011;40438;52.992;18.604;2023-08-06T09:35:57;5.05;;;4.32;;
54539;SDS011;40438;52.992;18.604;2023-08-06T09:38:24;7.47;;;4.43;;
54539;SDS011;40438;52.992;18.604;2023-08-06T09:40:50;5.57;;;4.40;;
54539;SDS011;40438;52.992;18.604;2023-08-06T09:43:18;6.35;;;4.65;;
54539;SDS011;40438;52.992;18.604;2023-08-06T09:45:44;5.78;;;4.40;;
54539;SDS011;40438;52.992;18.604;2023-08-06T09:48:10;6.43;;;4.63;;
54539;SDS011;40438;52.992;18.604;2023-08-06T09:50:36;6.75;;;4.38;;
54539;SDS011;40438;52.992;18.604;2023-08-06T09:53:03;8.70;;;4.53;;
54539;SDS011;40438;52.992;18.604;2023-08-06T09:55:30;6.30;;;4.90;;
54539;SDS011;40438;52.992;18.604;2023-08-06T09:57:58;7.60;;;4.95;;
54539;SDS011;40438;52.992;18.604;2023-08-06T10:00:24;10.02;;;4.65;;
54539;SDS011;40438;52.992;18.604;2023-08-06T10:02:51;7.70;;;5.07;;
54539;SDS011;40438;52.992;18.604;2023-08-06T10:05:18;7.60;;;5.22;;
54539;SDS011;40438;52.992;18.604;2023-08-06T10:07:44;7.80;;;5.18;;
54539;SDS011;40438;52.992;18.604;2023-08-06T10:10:10;11.05;;;5.63;;
54539;SDS011;40438;52.992;18.604;2023-08-06T10:12:39;6.65;;;5.05;;
54539;SDS011;40438;52.992;18.604;2023-08-06T10:15:08;11.25;;;6.15;;
54539;SDS011;40438;52.992;18.604;2023-08-06T10:17:37;7.38;;;5.90;;
54539;SDS011;40438;52.992;18.604;2023-08-06T10:20:05;7.30;;;5.38;;
54539;SDS011;40438;52.992;18.604;2023-08-06T10:22:33;10.02;;;5.70;;
54539;SDS011;40438;52.992;18.604;2023-08-06T10:24:59;11.95;;;6.60;;
54539;SDS011;40438;52.992;18.604;2023-08-06T10:27:28;9.63;;;6.13;;
54539;SDS011;40438;52.992;18.604;2023-08-06T10:29:56;10.38;;;6.18;;
54539;SDS011;40438;52.992;18.604;2023-08-06T10:32:49;9.50;;;6.40;;
54539;SDS011;40438;52.992;18.604;2023-08-06T10:35:28;9.50;;;6.88;;
54539;SDS011;40438;52.992;18.604;2023-08-06T10:37:57;12.57;;;7.22;;
54539;SDS011;40438;52.992;18.604;2023-08-06T10:40:23;12.25;;;7.15;;
54539;SDS011;40438;52.992;18.604;2023-08-06T10:42:49;10.80;;;7.70;;
54539;SDS011;40438;52.992;18.604;2023-08-06T10:45:17;11.68;;;7.57;;
54539;SDS011;40438;52.992;18.604;2023-08-06T10:47:44;10.93;;;6.93;;
54539;SDS011;40438;52.992;18.604;2023-08-06T10:50:11;9.88;;;6.75;;
54539;SDS011;40438;52.992;18.604;2023-08-06T10:52:37;12.55;;;7.68;;
54539;SDS011;40438;52.992;18.604;2023-08-06T10:55:03;10.77;;;7.35;;
54539;SDS011;40438;52.992;18.604;2023-08-06T10:57:30;13.85;;;8.40;;
54539;SDS011;40438;52.992;18.604;2023-08-06T10:59:55;14.63;;;8.10;;
54539;SDS011;40438;52.992;18.604;2023-08-06T11:02:23;12.63;;;8.23;;
54539;SDS011;40438;52.992;18.604;2023-08-06T11:04:49;12.88;;;8.00;;
54539;SDS011;40438;52.992;18.604;2023-08-06T11:07:14;15.77;;;8.15;;
54539;SDS011;40438;52.992;18.604;2023-08-06T11:09:40;11.18;;;7.05;;
54539;SDS011;40438;52.992;18.604;2023-08-06T11:12:08;10.13;;;7.38;;
54539;SDS011;40438;52.992;18.604;2023-08-06T11:14:35;12.00;;;7.85;;
54539;SDS011;40438;52.992;18.604;2023-08-06T11:17:00;14.25;;;8.38;;
54539;SDS011;40438;52.992;18.604;2023-08-06T11:19:28;11.77;;;8.27;;
54539;SDS011;40438;52.992;18.604;2023-08-06T11:21:54;11.65;;;7.85;;
54539;SDS011;40438;52.992;18.604;2023-08-06T11:24:21;11.30;;;7.93;;
54539;SDS011;40438;52.992;18.604;2023-08-06T11:26:48;12.98;;;7.72;;
54539;SDS011;40438;52.992;18.604;2023-08-06T11:29:15;11.35;;;7.80;;
54539;SDS011;40438;52.992;18.604;2023-08-06T11:31:41;15.20;;;8.13;;
54539;SDS011;40438;52.992;18.604;2023-08-06T11:34:06;14.07;;;8.48;;
54539;SDS011;40438;52.992;18.604;2023-08-06T11:36:34;14.30;;;8.35;;
54539;SDS011;40438;52.992;18.604;2023-08-06T11:39:06;13.32;;;8.40;;
54539;SDS011;40438;52.992;18.604;2023-08-06T11:41:31;14.90;;;8.23;;
54539;SDS011;40438;52.992;18.604;2023-08-06T11:43:57;12.18;;;7.68;;
54539;SDS011;40438;52.992;18.604;2023-08-06T11:46:23;11.98;;;8.60;;
54539;SDS011;40438;52.992;18.604;2023-08-06T11:48:52;12.88;;;9.77;;
54539;SDS011;40438;52.992;18.604;2023-08-06T11:51:22;17.52;;;9.75;;
54539;SDS011;40438;52.992;18.604;2023-08-06T11:53:49;13.70;;;9.27;;
54539;SDS011;40438;52.992;18.604;2023-08-06T11:56:15;15.35;;;10.20;;
54539;SDS011;40438;52.992;18.604;2023-08-06T11:58:41;18.77;;;10.52;;
54539;SDS011;40438;52.992;18.604;2023-08-06T12:01:07;17.67;;;10.93;;
54539;SDS011;40438;52.992;18.604;2023-08-06T12:03:38;15.95;;;10.57;;
54539;SDS011;40438;52.992;18.604;2023-08-06T12:06:04;18.52;;;11.13;;
54539;SDS011;40438;52.992;18.604;2023-08-06T12:08:30;14.88;;;11.07;;
54539;SDS011;40438;52.992;18.604;2023-08-06T12:10:57;20.50;;;11.70;;
54539;SDS011;40438;52.992;18.604;2023-08-06T12:13:23;19.48;;;12.10;;
54539;SDS011;40438;52.992;18.604;2023-08-06T12:15:49;18.20;;;11.45;;
54539;SDS011;40438;52.992;18.604;2023-08-06T12:18:15;16.70;;;10.70;;
54539;SDS011;40438;52.992;18.604;2023-08-06T12:20:40;18.52;;;11.95;;
54539;SDS011;40438;52.992;18.604;2023-08-06T12:23:06;16.20;;;11.60;;
54539;SDS011;40438;52.992;18.604;2023-08-06T12:25:32;16.70;;;11.98;;
54539;SDS011;40438;52.992;18.604;2023-08-06T12:27:59;20.90;;;12.40;;
54539;SDS011;40438;52.992;18.604;2023-08-06T12:30:25;16.02;;;12.40;;
54539;SDS011;40438;52.992;18.604;2023-08-06T12:32:51;19.98;;;12.57;;
54539;SDS011;40438;52.992;18.604;2023-08-06T12:35:17;20.40;;;12.88;;
54539;SDS011;40438;52.992;18.604;2023-08-06T12:37:42;20.98;;;13.85;;
54539;SDS011;40438;52.992;18.604;2023-08-06T12:40:08;17.08;;;12.98;;
54539;SDS011;40438;52.992;18.604;2023-08-06T12:42:35;22.45;;;14.07;;
54539;SDS011;40438;52.992;18.604;2023-08-06T12:45:02;21.27;;;14.57;;
54539;SDS011;40438;52.992;18.604;2023-08-06T12:47:28;21.38;;;14.82;;
54539;SDS011;40438;52.992;18.604;2023-08-06T12:49:54;25.42;;;14.68;;
54539;SDS011;40438;52.992;18.604;2023-08-06T12:52:20;17.05;;;13.50;;
54539;SDS011;40438;52.992;18.604;2023-08-06T12:54:46;21.67;;;14.68;;
54539;SDS011;40438;52.992;18.604;2023-08-06T12:57:11;20.58;;;14.07;;
54539;SDS011;40438;52.992;18.604;2023-08-06T12:59:37;22.02;;;14.30;;
54539;SDS011;40438;52.992;18.604;2023-08-06T13:02:04;18.92;;;13.68;;
54539;SDS011;40438;52.992;18.604;2023-08-06T13:04:30;19.42;;;13.88;;
54539;SDS011;40438;52.992;18.604;2023-08-06T13:06:56;22.30;;;13.95;;
54539;SDS011;40438;52.992;18.604;2023-08-06T13:09:22;18.30;;;13.60;;
54539;SDS011;40438;52.992;18.604;2023-08-06T13:11:47;18.25;;;13.50;;
54539;SDS011;40438;52.992;18.604;2023-08-06T13:14:14;22.60;;;13.57;;
54539;SDS011;40438;52.992;18.604;2023-08-06T13:16:40;22.02;;;14.98;;
54539;SDS011;40438;52.992;18.604;2023-08-06T13:19:08;23.00;;;14.30;;
54539;SDS011;40438;52.992;18.604;2023-08-06T13:21:34;19.42;;;13.95;;
54539;SDS011;40438;52.992;18.604;2023-08-06T13:24:17;19.33;;;14.23;;
54539;SDS011;40438;52.992;18.604;2023-08-06T13:26:42;20.13;;;14.05;;
54539;SDS011;40438;52.992;18.604;2023-08-06T13:29:08;17.90;;;13.52;;
54539;SDS011;40438;52.992;18.604;2023-08-06T13:31:35;21.13;;;13.45;;
54539;SDS011;40438;52.992;18.604;2023-08-06T13:34:01;19.23;;;13.27;;
54539;SDS011;40438;52.992;18.604;2023-08-06T13:36:29;21.67;;;14.68;;
54539;SDS011;40438;52.992;18.604;2023-08-06T13:38:54;18.90;;;12.75;;
54539;SDS011;40438;52.992;18.604;2023-08-06T13:41:21;18.88;;;12.82;;
54539;SDS011;40438;52.992;18.604;2023-08-06T13:43:47;22.30;;;14.13;;
54539;SDS011;40438;52.992;18.604;2023-08-06T13:46:13;19.27;;;12.35;;
54539;SDS011;40438;52.992;18.604;2023-08-06T13:48:39;19.92;;;13.63;;
54539;SDS011;40438;52.992;18.604;2023-08-06T13:51:05;18.08;;;13.23;;
54539;SDS011;40438;52.992;18.604;2023-08-06T13:53:32;20.65;;;12.95;;
54539;SDS011;40438;52.992;18.604;2023-08-06T13:55:58;18.48;;;12.65;;
54539;SDS011;40438;52.992;18.604;2023-08-06T13:58:24;17.70;;;13.35;;
54539;SDS011;40438;52.992;18.604;2023-08-06T14:00:49;16.92;;;13.13;;
54539;SDS011;40438;52.992;18.604;2023-08-06T14:03:15;19.90;;;13.23;;
54539;SDS011;40438;52.992;18.604;2023-08-06T14:05:41;19.88;;;13.48;;
54539;SDS011;40438;52.992;18.604;2023-08-06T14:08:07;18.48;;;13.10;;
54539;SDS011;40438;52.992;18.604;2023-08-06T14:10:34;19.80;;;13.57;;
54539;SDS011;40438;52.992;18.604;2023-08-06T14:13:00;16.52;;;12.35;;
54539;SDS011;40438;52.992;18.604;2023-08-06T14:15:25;19.83;;;13.88;;
54539;SDS011;40438;52.992;18.604;2023-08-06T14:17:51;18.90;;;13.65;;
54539;SDS011;40438;52.992;18.604;2023-08-06T14:20:17;19.77;;;14.05;;
54539;SDS011;40438;52.992;18.604;2023-08-06T14:22:43;19.73;;;14.00;;
54539;SDS011;40438;52.992;18.604;2023-08-06T14:25:09;19.35;;;13.27;;
54539;SDS011;40438;52.992;18.604;2023-08-06T14:27:36;22.65;;;14.48;;